Xun Long 5 — BYGW — position and weather

sailwx.info

Track history (hours):
 
Tides and Currents Weather Stations Pressure Air Temp Water Temp Dewpoint Dewpoint Depression Visibility Wind Speed Wind Dir Waves Ship Positions

Xun Long 5

Last reported at 2017-Nov-19 06:30 UTC. Time now 2017-Nov-19 06:59 UTC.
Position N 22°28' E 113°55'.

Length 34 m; draft 1.4 m.

Type: High speed craft. MMSI: 413471870.

Date/timePositionNaut miles runAvg speedWind from/ knotsBaromVisibWave heightAir tempDewpointWater temp
2017-Nov-19 06:30N 22°28' E 113°55'714.7
2017-Nov-19 06:00N 22°21' E 113°57'1122.1
2017-Nov-19 05:30N 22°18' E 114°08'3 5.1
2017-Nov-19 04:58N 22°19' E 114°06'1124.2
2017-Nov-19 04:31N 22°23' E 113°54'510.7
2017-Nov-19 04:00N 22°28' E 113°55'0 0.0
2017-Nov-19 03:31N 22°28' E 113°55'2 4.9
2017-Nov-19 03:01N 22°26' E 113°54'1221.1
2017-Nov-19 02:27N 22°20' E 114°05'4 8.3
2017-Nov-19 02:00N 22°18' E 114°09'1123.1
2017-Nov-19 01:30N 22°21' E 113°57'813.9
2017-Nov-19 00:58N 22°28' E 113°55'0 0.2
2017-Nov-19 00:29N 22°28' E 113°55'0 0.0
2017-Nov-18 23:59N 22°28' E 113°55'0 0.0
2017-Nov-18 23:29N 22°28' E 113°55'0 0.0
2017-Nov-18 22:56N 22°28' E 113°55'0 0.0
2017-Nov-18 22:29N 22°28' E 113°55'0 0.0
2017-Nov-18 21:59N 22°28' E 113°55'0 0.0
2017-Nov-18 21:29N 22°28' E 113°55'0 0.0
2017-Nov-18 20:59N 22°28' E 113°55'0 0.0
2017-Nov-18 20:26N 22°28' E 113°55'0 0.0
2017-Nov-18 19:56N 22°28' E 113°55'0 0.0
2017-Nov-18 19:26N 22°28' E 113°55'0 0.0
2017-Nov-18 18:59N 22°28' E 113°55'0 0.0
2017-Nov-18 18:26N 22°28' E 113°55'0 0.0
2017-Nov-18 17:59N 22°28' E 113°55'0 0.0
2017-Nov-18 17:29N 22°28' E 113°55'0 0.0
2017-Nov-18 16:59N 22°28' E 113°55'0 0.0
2017-Nov-18 16:29N 22°28' E 113°55'0 0.0
2017-Nov-18 15:59N 22°28' E 113°55'0 0.0
2017-Nov-18 15:29N 22°28' E 113°55'0 0.0
2017-Nov-18 14:59N 22°28' E 113°55'0 0.0
2017-Nov-18 14:29N 22°28' E 113°55'0 0.0
2017-Nov-18 13:59N 22°28' E 113°55'0 0.0
2017-Nov-18 13:29N 22°28' E 113°55'0 0.0
2017-Nov-18 13:00N 22°28' E 113°55'1 1.7
2017-Nov-18 12:30N 22°27' E 113°55'2 4.6
2017-Nov-18 12:00N 22°29' E 113°57'4 7.2
2017-Nov-18 11:30N 22°27' E 113°54'2 3.9
2017-Nov-18 10:58N 22°28' E 113°55'0 0.0
2017-Nov-18 10:28N 22°28' E 113°55'0 0.0
2017-Nov-18 09:58N 22°28' E 113°55'1 2.1
2017-Nov-18 09:30N 22°27' E 113°55'2 4.0
2017-Nov-18 09:00N 22°29' E 113°57'3 6.3
2017-Nov-18 08:28N 22°26' E 113°54'2 4.2
2017-Nov-18 07:58N 22°28' E 113°55'0 0.1
2017-Nov-18 07:19N 22°28' E 113°55'0 0.0
2017-Nov-18 06:52N 22°28' E 113°55'0 0.0
2017-Nov-18 06:07N 22°28' E 113°55'0 0.0
2017-Nov-18 05:55N 22°28' E 113°55'0 0.0
2017-Nov-18 05:25N 22°28' E 113°55'0 0.0
2017-Nov-18 04:46N 22°28' E 113°55'0 0.0
2017-Nov-18 04:24N 22°28' E 113°55'0 0.0
2017-Nov-18 04:00N 22°28' E 113°55'0 0.1
2017-Nov-18 03:30N 22°28' E 113°55'510.9
2017-Nov-18 03:01N 22°23' E 113°54'1222.6
2017-Nov-18 02:29N 22°19' E 114°07'1 2.2
2017-Nov-18 02:00N 22°19' E 114°08'1123.4
2017-Nov-18 01:30N 22°22' E 113°56'713.6
2017-Nov-18 01:00N 22°28' E 113°55'0 0.2
2017-Nov-18 00:30N 22°28' E 113°55'0 0.0
2017-Nov-18 00:00N 22°28' E 113°55'0 0.0
2017-Nov-17 23:30N 22°28' E 113°55'0 0.0
2017-Nov-17 23:00N 22°28' E 113°55'0 0.0
2017-Nov-17 22:30N 22°28' E 113°55'0 0.0
2017-Nov-17 22:00N 22°28' E 113°55'0 0.0
2017-Nov-17 21:30N 22°28' E 113°55'0 0.0
2017-Nov-17 21:00N 22°28' E 113°55'0 0.0
2017-Nov-17 20:30N 22°28' E 113°55'0 0.0
2017-Nov-17 20:00N 22°28' E 113°55'0 0.0
2017-Nov-17 19:30N 22°28' E 113°55'0 0.0
2017-Nov-17 19:00N 22°28' E 113°55'0 0.0
2017-Nov-17 18:30N 22°28' E 113°55'0 0.0
2017-Nov-17 18:00N 22°28' E 113°55'0 0.0
2017-Nov-17 17:30N 22°28' E 113°55'0 0.0
2017-Nov-17 17:00N 22°28' E 113°55'0 0.0
2017-Nov-17 16:30N 22°28' E 113°55'0 0.0
2017-Nov-17 16:00N 22°28' E 113°55'0 0.0
2017-Nov-17 15:30N 22°28' E 113°55'0 0.0
2017-Nov-17 15:00N 22°28' E 113°55'0 0.0
2017-Nov-17 14:30N 22°28' E 113°55'0 0.0
2017-Nov-17 14:00N 22°28' E 113°55'0 0.0
2017-Nov-17 13:30N 22°28' E 113°55'0 0.1
2017-Nov-17 13:00N 22°28' E 113°55'1 1.9
2017-Nov-17 12:30N 22°27' E 113°55'2 4.6
2017-Nov-17 12:00N 22°29' E 113°57'4 7.1
2017-Nov-17 11:30N 22°27' E 113°54'2 3.8
2017-Nov-17 11:00N 22°28' E 113°55'0 0.0
2017-Nov-17 10:30N 22°28' E 113°55'0 0.0
2017-Nov-17 10:00N 22°28' E 113°55'1 2.0
2017-Nov-17 09:30N 22°27' E 113°55'2 4.4
2017-Nov-17 09:00N 22°29' E 113°57'4 7.3
2017-Nov-17 08:30N 22°26' E 113°54'2 4.2
2017-Nov-17 08:00N 22°28' E 113°55'1 0.6
2017-Nov-17 06:08N 22°27' E 113°55'622.8
2017-Nov-17 05:51N 22°21' E 113°57'1022.3
2017-Nov-17 05:24N 22°19' E 114°08'2 5.8
2017-Nov-17 05:00N 22°17' E 114°09'17 7.8
2017-Nov-17 02:50N 22°25' E 113°53'823.9
2017-Nov-17 02:31N 22°20' E 113°46'1224.6
2017-Nov-17 02:01N 22°11' E 113°37'3 6.9
2017-Nov-17 01:30N 22°12' E 113°34'816.0
2017-Nov-17 01:01N 22°15' E 113°42'1325.4
2017-Nov-17 00:30N 22°23' E 113°52'6 2.0
2017-Nov-16 21:45N 22°28' E 113°55'0 0.0
2017-Nov-16 21:09N 22°28' E 113°55'0 0.0
2017-Nov-16 09:40N 22°28' E 113°55'1 4.6
2017-Nov-16 09:30N 22°28' E 113°55'2 3.0
2017-Nov-16 09:00N 22°29' E 113°57'3 7.0
2017-Nov-16 08:30N 22°26' E 113°54'2 1.6
2017-Nov-16 07:14N 22°28' E 113°55'0 0.0
2017-Nov-16 06:56N 22°28' E 113°55'1 1.7
2017-Nov-16 06:06N 22°27' E 113°55'226.9
2017-Nov-16 06:01N 22°25' E 113°54'1121.6
2017-Nov-16 05:29N 22°20' E 114°05'4 7.8
2017-Nov-16 04:57N 22°18' E 114°09'1124.2
2017-Nov-16 04:30N 22°21' E 113°57'813.8
2017-Nov-16 03:56N 22°28' E 113°55'0 0.0
2017-Nov-16 03:12N 22°28' E 113°55'211.6
2017-Nov-16 03:00N 22°26' E 113°54'1325.8
2017-Nov-16 02:31N 22°17' E 113°44'1121.6
2017-Nov-16 02:00N 22°11' E 113°34'1 1.7
2017-Nov-16 01:28N 22°12' E 113°34'715.6
2017-Nov-16 01:01N 22°14' E 113°41'1326.0
2017-Nov-16 00:31N 22°23' E 113°51'612.1
2017-Nov-16 00:00N 22°28' E 113°55'0 0.1
2017-Nov-15 23:30N 22°28' E 113°55'0 0.0
2017-Nov-15 23:00N 22°28' E 113°55'0 0.0
2017-Nov-15 22:30N 22°28' E 113°55'0 0.0
2017-Nov-15 21:57N 22°28' E 113°55'0 0.0
2017-Nov-15 21:30N 22°28' E 113°55'0 0.0
2017-Nov-15 09:44N 22°28' E 113°55'2 1.5
2017-Nov-15 08:25N 22°26' E 113°54'2 1.3
2017-Nov-15 06:44N 22°28' E 113°55'0 0.4
2017-Nov-15 06:30N 22°28' E 113°55'510.5
2017-Nov-15 06:01N 22°23' E 113°54'1323.5
2017-Nov-15 05:27N 22°19' E 114°08'1 1.8
2017-Nov-15 05:00N 22°18' E 114°08'1325.3
2017-Nov-15 04:31N 22°22' E 113°55'713.0
2017-Nov-15 04:00N 22°28' E 113°55'1121.3
2017-Nov-15 03:31N 22°20' E 113°47'1224.0
2017-Nov-15 03:01N 22°11' E 113°39'4 7.8
2017-Nov-15 02:29N 22°10' E 113°35'918.9
2017-Nov-15 02:01N 22°15' E 113°43'1325.4
2017-Nov-15 01:31N 22°24' E 113°52'5 9.3
2017-Nov-15 00:59N 22°28' E 113°55'0 0.0
2017-Nov-14 23:41N 22°28' E 113°55'0 0.0
2017-Nov-14 23:20N 22°28' E 113°55'0 0.0
2017-Nov-14 21:59N 22°28' E 113°55'0 0.0
2017-Nov-14 21:23N 22°28' E 113°55'0 0.0
2017-Nov-14 19:47N 22°28' E 113°55'0 0.0
2017-Nov-14 19:20N 22°28' E 113°55'0 0.1
2017-Nov-14 18:50N 22°28' E 113°55'0 0.1
2017-Nov-14 17:44N 22°28' E 113°55'0 0.0
2017-Nov-14 16:44N 22°28' E 113°55'0 0.1
2017-Nov-14 16:23N 22°28' E 113°55'0 0.1
2017-Nov-14 15:56N 22°28' E 113°55'0 0.0
2017-Nov-14 15:29N 22°28' E 113°55'0 0.0
2017-Nov-14 14:47N 22°28' E 113°55'0 0.0
2017-Nov-14 14:29N 22°28' E 113°55'0 0.0
2017-Nov-14 13:53N 22°28' E 113°55'0 0.0
2017-Nov-14 13:23N 22°28' E 113°55'0 0.0
2017-Nov-14 12:59N 22°28' E 113°55'1 2.1
2017-Nov-14 12:30N 22°27' E 113°55'2 4.2
2017-Nov-14 12:01N 22°29' E 113°57'4 7.5
2017-Nov-14 11:30N 22°26' E 113°54'2 4.2
2017-Nov-14 11:00N 22°28' E 113°55'0 0.0
2017-Nov-14 10:30N 22°28' E 113°55'0 0.0
2017-Nov-14 10:00N 22°28' E 113°55'1 1.9
2017-Nov-14 09:30N 22°27' E 113°55'2 4.0
2017-Nov-14 09:00N 22°29' E 113°57'4 7.3
2017-Nov-14 08:30N 22°26' E 113°54'2 3.7
2017-Nov-14 07:57N 22°28' E 113°55'0 0.0
2017-Nov-14 07:30N 22°28' E 113°55'0 0.0
2017-Nov-14 07:00N 22°28' E 113°55'0 0.1
2017-Nov-14 06:30N 22°28' E 113°55'612.9
2017-Nov-14 06:01N 22°22' E 113°55'1323.2
2017-Nov-14 05:27N 22°18' E 114°08'1 1.9
2017-Nov-14 04:54N 22°17' E 114°09'821.5
2017-Nov-14 04:30N 22°21' E 114°01'918.6
2017-Nov-14 04:00N 22°28' E 113°55'0 0.0
2017-Nov-14 03:30N 22°28' E 113°55'0 0.6
2017-Nov-14 03:01N 22°28' E 113°55'1224.0
2017-Nov-14 02:31N 22°19' E 113°46'1122.8
2017-Nov-14 02:01N 22°11' E 113°37'3 6.9
2017-Nov-14 01:30N 22°12' E 113°34'714.6
2017-Nov-14 01:00N 22°14' E 113°41'1327.0
2017-Nov-14 00:31N 22°23' E 113°52'611.3
2017-Nov-14 00:00N 22°28' E 113°55'0 0.0
2017-Nov-13 23:30N 22°28' E 113°55'0 0.0
2017-Nov-13 23:00N 22°28' E 113°55'0 0.0
2017-Nov-13 22:30N 22°28' E 113°55'0 0.0
2017-Nov-13 22:00N 22°28' E 113°55'24 1.2
2017-Nov-13 02:00N 22°10' E 113°37'3 6.2
2017-Nov-13 01:30N 22°12' E 113°34'815.8
2017-Nov-13 01:01N 22°14' E 113°42'1326.3
2017-Nov-13 00:31N 22°24' E 113°52'510.4
2017-Nov-12 23:59N 22°28' E 113°55'0 0.3
2017-Nov-12 23:30N 22°28' E 113°55'0 0.0
2017-Nov-12 22:51N 22°28' E 113°55'0 0.0
2017-Nov-12 22:30N 22°28' E 113°55'0 0.0
2017-Nov-12 22:00N 22°28' E 113°55'0 0.0
2017-Nov-12 21:27N 22°28' E 113°55'0 0.0
2017-Nov-12 21:00N 22°28' E 113°55'0 0.0
2017-Nov-12 20:27N 22°28' E 113°55'0 0.0
2017-Nov-12 20:00N 22°28' E 113°55'0 0.0
2017-Nov-12 19:30N 22°28' E 113°55'0 0.0
2017-Nov-12 19:00N 22°28' E 113°55'0 0.0
2017-Nov-12 18:30N 22°28' E 113°55'0 0.0
2017-Nov-12 18:00N 22°28' E 113°55'0 0.0
2017-Nov-12 17:30N 22°28' E 113°55'0 0.0
2017-Nov-12 17:00N 22°28' E 113°55'0 0.0
2017-Nov-12 16:30N 22°28' E 113°55'0 0.0
2017-Nov-12 16:00N 22°28' E 113°55'0 0.0
2017-Nov-12 15:30N 22°28' E 113°55'0 0.0
2017-Nov-12 15:00N 22°28' E 113°55'0 0.0
2017-Nov-12 14:30N 22°28' E 113°55'0 0.0
2017-Nov-12 13:57N 22°28' E 113°55'0 0.0
2017-Nov-12 13:30N 22°28' E 113°55'0 0.2
2017-Nov-12 13:00N 22°28' E 113°55'1 1.1
2017-Nov-12 12:30N 22°28' E 113°55'2 4.5
2017-Nov-12 12:00N 22°29' E 113°57'3 6.4
2017-Nov-12 11:30N 22°27' E 113°54'2 3.5
2017-Nov-12 11:00N 22°28' E 113°55'0 0.0
2017-Nov-12 10:30N 22°28' E 113°55'0 0.0
2017-Nov-12 10:00N 22°28' E 113°55'1 1.7
2017-Nov-12 09:30N 22°27' E 113°55'2 4.7
2017-Nov-12 09:00N 22°29' E 113°57'3 7.0
2017-Nov-12 08:30N 22°26' E 113°54'2 3.4
2017-Nov-12 07:55N 22°28' E 113°55'0 0.0
2017-Nov-12 07:25N 22°28' E 113°55'0 0.0
2017-Nov-12 06:52N 22°28' E 113°55'0 0.0
2017-Nov-12 06:24N 22°28' E 113°55'512.8
2017-Nov-12 06:01N 22°23' E 113°54'1223.2
2017-Nov-12 05:30N 22°19' E 114°06'3 6.5
2017-Nov-12 05:00N 22°17' E 114°09'1121.7
2017-Nov-12 04:30N 22°21' E 113°58'814.6
2017-Nov-12 03:58N 22°28' E 113°55'0 0.0
2017-Nov-12 03:31N 22°28' E 113°55'1 2.3
2017-Nov-12 03:01N 22°27' E 113°55'1420.3
2017-Nov-12 02:19N 22°19' E 114°07'2 5.2
2017-Nov-12 01:55N 22°18' E 114°09'1023.1
2017-Nov-12 01:30N 22°21' E 113°59'813.8
2017-Nov-12 00:55N 22°28' E 113°55'0 0.0
2017-Nov-12 00:25N 22°28' E 113°55'0 0.0
2017-Nov-11 23:52N 22°28' E 113°55'0 0.0
2017-Nov-11 23:31N 22°28' E 113°55'0 0.0
2017-Nov-11 22:43N 22°28' E 113°55'0 0.0
2017-Nov-11 22:25N 22°28' E 113°55'0 0.0
2017-Nov-11 22:01N 22°28' E 113°55'0 0.0
2017-Nov-11 20:49N 22°28' E 113°55'0 0.0
2017-Nov-11 20:25N 22°28' E 113°55'0 0.0
2017-Nov-11 20:00N 22°28' E 113°55'0 0.0
2017-Nov-11 19:30N 22°28' E 113°55'0 0.0
2017-Nov-11 18:54N 22°28' E 113°55'0 0.0
2017-Nov-11 18:25N 22°28' E 113°55'0 0.0
2017-Nov-11 17:58N 22°28' E 113°55'0 0.0
2017-Nov-11 17:31N 22°28' E 113°55'0 0.0
2017-Nov-11 17:00N 22°28' E 113°55'0 0.0
2017-Nov-11 16:24N 22°28' E 113°55'0 0.0
2017-Nov-11 16:00N 22°28' E 113°55'0 0.0
2017-Nov-11 15:30N 22°28' E 113°55'0 0.0
2017-Nov-11 15:00N 22°28' E 113°55'0 0.0
2017-Nov-11 14:30N 22°28' E 113°55'0 0.0
2017-Nov-11 13:58N 22°28' E 113°55'0 0.0
2017-Nov-11 13:30N 22°28' E 113°55'0 0.0
2017-Nov-11 13:00N 22°28' E 113°55'1 1.9
2017-Nov-11 12:30N 22°27' E 113°55'2 4.1
2017-Nov-11 12:01N 22°29' E 113°57'4 7.4
2017-Nov-11 11:30N 22°26' E 113°54'2 4.0
2017-Nov-11 10:58N 22°28' E 113°55'0 0.0
2017-Nov-11 10:28N 22°28' E 113°55'0 0.0
2017-Nov-11 09:55N 22°28' E 113°55'1 2.3
2017-Nov-11 09:30N 22°27' E 113°55'2 4.2
2017-Nov-11 09:01N 22°29' E 113°57'4 7.5
2017-Nov-11 08:30N 22°26' E 113°53'2 2.8
2017-Nov-11 07:44N 22°28' E 113°55'0 0.0
2017-Nov-11 07:29N 22°28' E 113°55'0 0.0
2017-Nov-11 06:59N 22°28' E 113°55'0 0.0
2017-Nov-11 06:23N 22°28' E 113°55'0 0.0
2017-Nov-11 05:59N 22°28' E 113°55'0 0.0
2017-Nov-11 05:26N 22°28' E 113°55'0 0.0
2017-Nov-11 04:59N 22°28' E 113°55'0 0.1
2017-Nov-11 04:31N 22°28' E 113°55'1318.8
2017-Nov-11 03:49N 22°20' E 114°05'4 9.4
2017-Nov-11 03:21N 22°17' E 114°09'818.0
2017-Nov-11 02:55N 22°21' E 114°02'820.5
2017-Nov-11 02:31N 22°26' E 113°54'3 5.4
2017-Nov-11 02:00N 22°28' E 113°55'0 0.2
2017-Nov-11 01:26N 22°28' E 113°55'0 0.0
2017-Nov-11 00:59N 22°28' E 113°55'0 0.0
2017-Nov-11 00:29N 22°28' E 113°55'0 0.0
2017-Nov-10 23:59N 22°28' E 113°55'0 0.0
2017-Nov-10 23:29N 22°28' E 113°55'0 0.0
2017-Nov-10 22:59N 22°28' E 113°55'0 0.0
2017-Nov-10 22:29N 22°28' E 113°55'0 0.0
2017-Nov-10 21:59N 22°28' E 113°55'0 0.0
2017-Nov-10 21:29N 22°28' E 113°55'0 0.0
2017-Nov-10 20:59N 22°28' E 113°55'0 0.0
2017-Nov-10 20:29N 22°28' E 113°55'0 0.0
2017-Nov-10 19:59N 22°28' E 113°55'0 0.0
2017-Nov-10 19:29N 22°28' E 113°55'0 0.0
2017-Nov-10 18:59N 22°28' E 113°55'0 0.0
2017-Nov-10 18:29N 22°28' E 113°55'0 0.0
2017-Nov-10 17:59N 22°28' E 113°55'0 0.0
2017-Nov-10 17:29N 22°28' E 113°55'0 0.0
2017-Nov-10 16:59N 22°28' E 113°55'0 0.0
2017-Nov-10 16:26N 22°28' E 113°55'0 0.0
2017-Nov-10 15:59N 22°28' E 113°55'0 0.0
2017-Nov-10 15:26N 22°28' E 113°55'0 0.0
2017-Nov-10 14:59N 22°28' E 113°55'0 0.0
2017-Nov-10 14:26N 22°28' E 113°55'0 0.0
2017-Nov-10 13:59N 22°28' E 113°55'0 0.0
2017-Nov-10 13:29N 22°28' E 113°55'0 0.0
2017-Nov-10 13:01N 22°28' E 113°55'1 2.0
2017-Nov-10 12:30N 22°28' E 113°55'1 2.6
2017-Nov-10 12:00N 22°29' E 113°57'3 6.9
2017-Nov-10 11:30N 22°26' E 113°54'2 4.0
2017-Nov-10 10:58N 22°28' E 113°55'0 0.0
2017-Nov-10 10:25N 22°28' E 113°55'0 0.0
2017-Nov-10 09:58N 22°28' E 113°55'1 2.1
2017-Nov-10 09:30N 22°27' E 113°55'2 4.2
2017-Nov-10 09:00N 22°29' E 113°57'4 7.5
2017-Nov-10 08:30N 22°26' E 113°54'2 3.5
2017-Nov-10 07:54N 22°28' E 113°55'0 0.0
2017-Nov-10 07:27N 22°28' E 113°55'0 0.0
2017-Nov-10 07:00N 22°28' E 113°55'0 0.0
2017-Nov-10 06:30N 22°28' E 113°55'5 9.5
2017-Nov-10 06:01N 22°24' E 113°54'1322.9
2017-Nov-10 05:26N 22°19' E 114°08'2 4.1
2017-Nov-10 04:59N 22°18' E 114°09'1123.2
2017-Nov-10 04:30N 22°21' E 113°57'815.5
2017-Nov-10 04:00N 22°28' E 113°55'0 0.0
2017-Nov-10 03:30N 22°28' E 113°55'0 0.1
2017-Nov-10 03:00N 22°28' E 113°55'1224.4
2017-Nov-10 02:31N 22°19' E 113°46'1224.0
2017-Nov-10 02:00N 22°11' E 113°37'3 6.5
2017-Nov-10 01:30N 22°12' E 113°34'918.2
2017-Nov-10 01:01N 22°15' E 113°43'1427.0
2017-Nov-10 00:31N 22°25' E 113°53'4 7.6
2017-Nov-10 00:00N 22°28' E 113°55'0 0.0
2017-Nov-09 23:30N 22°28' E 113°55'0 0.0
2017-Nov-09 22:56N 22°28' E 113°55'0 0.0
2017-Nov-09 22:29N 22°28' E 113°55'0 0.1
2017-Nov-09 21:56N 22°28' E 113°55'0 0.1
2017-Nov-09 21:29N 22°28' E 113°55'0 0.0
2017-Nov-09 20:59N 22°28' E 113°55'0 0.0
2017-Nov-09 20:26N 22°28' E 113°55'0 0.0
2017-Nov-09 19:53N 22°28' E 113°55'0 0.0
2017-Nov-09 19:29N 22°28' E 113°55'0 0.0
2017-Nov-09 18:59N 22°28' E 113°55'0 0.0
2017-Nov-09 18:29N 22°28' E 113°55'0 0.0
2017-Nov-09 17:59N 22°28' E 113°55'0 0.0
2017-Nov-09 17:29N 22°28' E 113°55'0 0.0
2017-Nov-09 16:56N 22°28' E 113°55'0 0.0
2017-Nov-09 16:29N 22°28' E 113°55'0 0.0
2017-Nov-09 15:56N 22°28' E 113°55'0 0.0
2017-Nov-09 15:23N 22°28' E 113°55'0 0.0
2017-Nov-09 14:59N 22°28' E 113°55'0 0.0
2017-Nov-09 14:26N 22°28' E 113°55'0 0.0
2017-Nov-09 13:59N 22°28' E 113°55'0 0.0
2017-Nov-09 13:26N 22°28' E 113°55'0 0.0
2017-Nov-09 12:57N 22°28' E 113°55'1 1.4
2017-Nov-09 12:30N 22°28' E 113°55'2 4.5
2017-Nov-09 12:00N 22°29' E 113°57'3 6.7
2017-Nov-09 11:30N 22°27' E 113°54'2 3.8
2017-Nov-09 11:00N 22°28' E 113°55'0 0.0
2017-Nov-09 10:30N 22°28' E 113°55'0 0.0
2017-Nov-09 10:00N 22°28' E 113°55'0 0.0
2017-Nov-09 09:30N 22°28' E 113°55'1 1.6
2017-Nov-09 09:00N 22°28' E 113°55'1 1.2
2017-Nov-09 08:30N 22°28' E 113°55'1 1.7
2017-Nov-09 08:00N 22°28' E 113°55'0 0.2
2017-Nov-09 07:27N 22°28' E 113°55'0 0.0
2017-Nov-09 06:54N 22°28' E 113°55'  
Track history (hours):
 
Tides and Currents Weather Stations Pressure Air Temp Water Temp Dewpoint Dewpoint Depression Visibility Wind Speed Wind Dir Waves Ship Positions

Xun Long 5

Last reported at 2017-Nov-19 06:30 UTC. Time now 2017-Nov-19 06:59 UTC.
Position N 22°28' E 113°55'.

Length 34 m; draft 1.4 m.

Type: High speed craft. MMSI: 413471870.

Date/timePositionNaut miles runAvg speedWind from/ knotsBaromVisibWave heightAir tempDewpointWater temp
2017-Nov-19 06:30N 22°28' E 113°55'714.7
2017-Nov-19 06:00N 22°21' E 113°57'1122.1
2017-Nov-19 05:30N 22°18' E 114°08'3 5.1
2017-Nov-19 04:58N 22°19' E 114°06'1124.2
2017-Nov-19 04:31N 22°23' E 113°54'510.7
2017-Nov-19 04:00N 22°28' E 113°55'0 0.0
2017-Nov-19 03:31N 22°28' E 113°55'2 4.9
2017-Nov-19 03:01N 22°26' E 113°54'1221.1
2017-Nov-19 02:27N 22°20' E 114°05'4 8.3
2017-Nov-19 02:00N 22°18' E 114°09'1123.1
2017-Nov-19 01:30N 22°21' E 113°57'813.9
2017-Nov-19 00:58N 22°28' E 113°55'0 0.2
2017-Nov-19 00:29N 22°28' E 113°55'0 0.0
2017-Nov-18 23:59N 22°28' E 113°55'0 0.0
2017-Nov-18 23:29N 22°28' E 113°55'0 0.0
2017-Nov-18 22:56N 22°28' E 113°55'0 0.0
2017-Nov-18 22:29N 22°28' E 113°55'0 0.0
2017-Nov-18 21:59N 22°28' E 113°55'0 0.0
2017-Nov-18 21:29N 22°28' E 113°55'0 0.0
2017-Nov-18 20:59N 22°28' E 113°55'0 0.0
2017-Nov-18 20:26N 22°28' E 113°55'0 0.0
2017-Nov-18 19:56N 22°28' E 113°55'0 0.0
2017-Nov-18 19:26N 22°28' E 113°55'0 0.0
2017-Nov-18 18:59N 22°28' E 113°55'0 0.0
2017-Nov-18 18:26N 22°28' E 113°55'0 0.0
2017-Nov-18 17:59N 22°28' E 113°55'0 0.0
2017-Nov-18 17:29N 22°28' E 113°55'0 0.0
2017-Nov-18 16:59N 22°28' E 113°55'0 0.0
2017-Nov-18 16:29N 22°28' E 113°55'0 0.0
2017-Nov-18 15:59N 22°28' E 113°55'0 0.0
2017-Nov-18 15:29N 22°28' E 113°55'0 0.0
2017-Nov-18 14:59N 22°28' E 113°55'0 0.0
2017-Nov-18 14:29N 22°28' E 113°55'0 0.0
2017-Nov-18 13:59N 22°28' E 113°55'0 0.0
2017-Nov-18 13:29N 22°28' E 113°55'0 0.0
2017-Nov-18 13:00N 22°28' E 113°55'1 1.7
2017-Nov-18 12:30N 22°27' E 113°55'2 4.6
2017-Nov-18 12:00N 22°29' E 113°57'4 7.2
2017-Nov-18 11:30N 22°27' E 113°54'2 3.9
2017-Nov-18 10:58N 22°28' E 113°55'0 0.0
2017-Nov-18 10:28N 22°28' E 113°55'0 0.0
2017-Nov-18 09:58N 22°28' E 113°55'1 2.1
2017-Nov-18 09:30N 22°27' E 113°55'2 4.0
2017-Nov-18 09:00N 22°29' E 113°57'3 6.3
2017-Nov-18 08:28N 22°26' E 113°54'2 4.2
2017-Nov-18 07:58N 22°28' E 113°55'0 0.1
2017-Nov-18 07:19N 22°28' E 113°55'0 0.0
2017-Nov-18 06:52N 22°28' E 113°55'0 0.0
2017-Nov-18 06:07N 22°28' E 113°55'0 0.0
2017-Nov-18 05:55N 22°28' E 113°55'0 0.0
2017-Nov-18 05:25N 22°28' E 113°55'0 0.0
2017-Nov-18 04:46N 22°28' E 113°55'0 0.0
2017-Nov-18 04:24N 22°28' E 113°55'0 0.0
2017-Nov-18 04:00N 22°28' E 113°55'0 0.1
2017-Nov-18 03:30N 22°28' E 113°55'510.9
2017-Nov-18 03:01N 22°23' E 113°54'1222.6
2017-Nov-18 02:29N 22°19' E 114°07'1 2.2
2017-Nov-18 02:00N 22°19' E 114°08'1123.4
2017-Nov-18 01:30N 22°22' E 113°56'713.6
2017-Nov-18 01:00N 22°28' E 113°55'0 0.2
2017-Nov-18 00:30N 22°28' E 113°55'0 0.0
2017-Nov-18 00:00N 22°28' E 113°55'0 0.0
2017-Nov-17 23:30N 22°28' E 113°55'0 0.0
2017-Nov-17 23:00N 22°28' E 113°55'0 0.0
2017-Nov-17 22:30N 22°28' E 113°55'0 0.0
2017-Nov-17 22:00N 22°28' E 113°55'0 0.0
2017-Nov-17 21:30N 22°28' E 113°55'0 0.0
2017-Nov-17 21:00N 22°28' E 113°55'0 0.0
2017-Nov-17 20:30N 22°28' E 113°55'0 0.0
2017-Nov-17 20:00N 22°28' E 113°55'0 0.0
2017-Nov-17 19:30N 22°28' E 113°55'0 0.0
2017-Nov-17 19:00N 22°28' E 113°55'0 0.0
2017-Nov-17 18:30N 22°28' E 113°55'0 0.0
2017-Nov-17 18:00N 22°28' E 113°55'0 0.0
2017-Nov-17 17:30N 22°28' E 113°55'0 0.0
2017-Nov-17 17:00N 22°28' E 113°55'0 0.0
2017-Nov-17 16:30N 22°28' E 113°55'0 0.0
2017-Nov-17 16:00N 22°28' E 113°55'0 0.0
2017-Nov-17 15:30N 22°28' E 113°55'0 0.0
2017-Nov-17 15:00N 22°28' E 113°55'0 0.0
2017-Nov-17 14:30N 22°28' E 113°55'0 0.0
2017-Nov-17 14:00N 22°28' E 113°55'0 0.0
2017-Nov-17 13:30N 22°28' E 113°55'0 0.1
2017-Nov-17 13:00N 22°28' E 113°55'1 1.9
2017-Nov-17 12:30N 22°27' E 113°55'2 4.6
2017-Nov-17 12:00N 22°29' E 113°57'4 7.1
2017-Nov-17 11:30N 22°27' E 113°54'2 3.8
2017-Nov-17 11:00N 22°28' E 113°55'0 0.0
2017-Nov-17 10:30N 22°28' E 113°55'0 0.0
2017-Nov-17 10:00N 22°28' E 113°55'1 2.0
2017-Nov-17 09:30N 22°27' E 113°55'2 4.4
2017-Nov-17 09:00N 22°29' E 113°57'4 7.3
2017-Nov-17 08:30N 22°26' E 113°54'2 4.2
2017-Nov-17 08:00N 22°28' E 113°55'1 0.6
2017-Nov-17 06:08N 22°27' E 113°55'622.8
2017-Nov-17 05:51N 22°21' E 113°57'1022.3
2017-Nov-17 05:24N 22°19' E 114°08'2 5.8
2017-Nov-17 05:00N 22°17' E 114°09'17 7.8
2017-Nov-17 02:50N 22°25' E 113°53'823.9
2017-Nov-17 02:31N 22°20' E 113°46'1224.6
2017-Nov-17 02:01N 22°11' E 113°37'3 6.9
2017-Nov-17 01:30N 22°12' E 113°34'816.0
2017-Nov-17 01:01N 22°15' E 113°42'1325.4
2017-Nov-17 00:30N 22°23' E 113°52'6 2.0
2017-Nov-16 21:45N 22°28' E 113°55'0 0.0
2017-Nov-16 21:09N 22°28' E 113°55'0 0.0
2017-Nov-16 09:40N 22°28' E 113°55'1 4.6
2017-Nov-16 09:30N 22°28' E 113°55'2 3.0
2017-Nov-16 09:00N 22°29' E 113°57'3 7.0
2017-Nov-16 08:30N 22°26' E 113°54'2 1.6
2017-Nov-16 07:14N 22°28' E 113°55'0 0.0
2017-Nov-16 06:56N 22°28' E 113°55'1 1.7
2017-Nov-16 06:06N 22°27' E 113°55'226.9
2017-Nov-16 06:01N 22°25' E 113°54'1121.6
2017-Nov-16 05:29N 22°20' E 114°05'4 7.8
2017-Nov-16 04:57N 22°18' E 114°09'1124.2
2017-Nov-16 04:30N 22°21' E 113°57'813.8
2017-Nov-16 03:56N 22°28' E 113°55'0 0.0
2017-Nov-16 03:12N 22°28' E 113°55'211.6
2017-Nov-16 03:00N 22°26' E 113°54'1325.8
2017-Nov-16 02:31N 22°17' E 113°44'1121.6
2017-Nov-16 02:00N 22°11' E 113°34'1 1.7
2017-Nov-16 01:28N 22°12' E 113°34'715.6
2017-Nov-16 01:01N 22°14' E 113°41'1326.0
2017-Nov-16 00:31N 22°23' E 113°51'612.1
2017-Nov-16 00:00N 22°28' E 113°55'0 0.1
2017-Nov-15 23:30N 22°28' E 113°55'0 0.0
2017-Nov-15 23:00N 22°28' E 113°55'0 0.0
2017-Nov-15 22:30N 22°28' E 113°55'0 0.0
2017-Nov-15 21:57N 22°28' E 113°55'0 0.0
2017-Nov-15 21:30N 22°28' E 113°55'0 0.0
2017-Nov-15 09:44N 22°28' E 113°55'2 1.5
2017-Nov-15 08:25N 22°26' E 113°54'2 1.3
2017-Nov-15 06:44N 22°28' E 113°55'0 0.4
2017-Nov-15 06:30N 22°28' E 113°55'510.5
2017-Nov-15 06:01N 22°23' E 113°54'1323.5
2017-Nov-15 05:27N 22°19' E 114°08'1 1.8
2017-Nov-15 05:00N 22°18' E 114°08'1325.3
2017-Nov-15 04:31N 22°22' E 113°55'713.0
2017-Nov-15 04:00N 22°28' E 113°55'1121.3
2017-Nov-15 03:31N 22°20' E 113°47'1224.0
2017-Nov-15 03:01N 22°11' E 113°39'4 7.8
2017-Nov-15 02:29N 22°10' E 113°35'918.9
2017-Nov-15 02:01N 22°15' E 113°43'1325.4
2017-Nov-15 01:31N 22°24' E 113°52'5 9.3
2017-Nov-15 00:59N 22°28' E 113°55'0 0.0
2017-Nov-14 23:41N 22°28' E 113°55'0 0.0
2017-Nov-14 23:20N 22°28' E 113°55'0 0.0
2017-Nov-14 21:59N 22°28' E 113°55'0 0.0
2017-Nov-14 21:23N 22°28' E 113°55'0 0.0
2017-Nov-14 19:47N 22°28' E 113°55'0 0.0
2017-Nov-14 19:20N 22°28' E 113°55'0 0.1
2017-Nov-14 18:50N 22°28' E 113°55'0 0.1
2017-Nov-14 17:44N 22°28' E 113°55'0 0.0
2017-Nov-14 16:44N 22°28' E 113°55'0 0.1
2017-Nov-14 16:23N 22°28' E 113°55'0 0.1
2017-Nov-14 15:56N 22°28' E 113°55'0 0.0
2017-Nov-14 15:29N 22°28' E 113°55'0 0.0
2017-Nov-14 14:47N 22°28' E 113°55'0 0.0
2017-Nov-14 14:29N 22°28' E 113°55'0 0.0
2017-Nov-14 13:53N 22°28' E 113°55'0 0.0
2017-Nov-14 13:23N 22°28' E 113°55'0 0.0
2017-Nov-14 12:59N 22°28' E 113°55'1 2.1
2017-Nov-14 12:30N 22°27' E 113°55'2 4.2
2017-Nov-14 12:01N 22°29' E 113°57'4 7.5
2017-Nov-14 11:30N 22°26' E 113°54'2 4.2
2017-Nov-14 11:00N 22°28' E 113°55'0 0.0
2017-Nov-14 10:30N 22°28' E 113°55'0 0.0
2017-Nov-14 10:00N 22°28' E 113°55'1 1.9
2017-Nov-14 09:30N 22°27' E 113°55'2 4.0
2017-Nov-14 09:00N 22°29' E 113°57'4 7.3
2017-Nov-14 08:30N 22°26' E 113°54'2 3.7
2017-Nov-14 07:57N 22°28' E 113°55'0 0.0
2017-Nov-14 07:30N 22°28' E 113°55'0 0.0
2017-Nov-14 07:00N 22°28' E 113°55'0 0.1
2017-Nov-14 06:30N 22°28' E 113°55'612.9
2017-Nov-14 06:01N 22°22' E 113°55'1323.2
2017-Nov-14 05:27N 22°18' E 114°08'1 1.9
2017-Nov-14 04:54N 22°17' E 114°09'821.5
2017-Nov-14 04:30N 22°21' E 114°01'918.6
2017-Nov-14 04:00N 22°28' E 113°55'0 0.0
2017-Nov-14 03:30N 22°28' E 113°55'0 0.6
2017-Nov-14 03:01N 22°28' E 113°55'1224.0
2017-Nov-14 02:31N 22°19' E 113°46'1122.8
2017-Nov-14 02:01N 22°11' E 113°37'3 6.9
2017-Nov-14 01:30N 22°12' E 113°34'714.6
2017-Nov-14 01:00N 22°14' E 113°41'1327.0
2017-Nov-14 00:31N 22°23' E 113°52'611.3
2017-Nov-14 00:00N 22°28' E 113°55'0 0.0
2017-Nov-13 23:30N 22°28' E 113°55'0 0.0
2017-Nov-13 23:00N 22°28' E 113°55'0 0.0
2017-Nov-13 22:30N 22°28' E 113°55'0 0.0
2017-Nov-13 22:00N 22°28' E 113°55'24 1.2
2017-Nov-13 02:00N 22°10' E 113°37'3 6.2
2017-Nov-13 01:30N 22°12' E 113°34'815.8
2017-Nov-13 01:01N 22°14' E 113°42'1326.3
2017-Nov-13 00:31N 22°24' E 113°52'510.4
2017-Nov-12 23:59N 22°28' E 113°55'0 0.3
2017-Nov-12 23:30N 22°28' E 113°55'0 0.0
2017-Nov-12 22:51N 22°28' E 113°55'0 0.0
2017-Nov-12 22:30N 22°28' E 113°55'0 0.0
2017-Nov-12 22:00N 22°28' E 113°55'0 0.0
2017-Nov-12 21:27N 22°28' E 113°55'0 0.0
2017-Nov-12 21:00N 22°28' E 113°55'0 0.0
2017-Nov-12 20:27N 22°28' E 113°55'0 0.0
2017-Nov-12 20:00N 22°28' E 113°55'0 0.0
2017-Nov-12 19:30N 22°28' E 113°55'0 0.0
2017-Nov-12 19:00N 22°28' E 113°55'0 0.0
2017-Nov-12 18:30N 22°28' E 113°55'0 0.0
2017-Nov-12 18:00N 22°28' E 113°55'0 0.0
2017-Nov-12 17:30N 22°28' E 113°55'0 0.0
2017-Nov-12 17:00N 22°28' E 113°55'0 0.0
2017-Nov-12 16:30N 22°28' E 113°55'0 0.0
2017-Nov-12 16:00N 22°28' E 113°55'0 0.0
2017-Nov-12 15:30N 22°28' E 113°55'0 0.0
2017-Nov-12 15:00N 22°28' E 113°55'0 0.0
2017-Nov-12 14:30N 22°28' E 113°55'0 0.0
2017-Nov-12 13:57N 22°28' E 113°55'0 0.0
2017-Nov-12 13:30N 22°28' E 113°55'0 0.2
2017-Nov-12 13:00N 22°28' E 113°55'1 1.1
2017-Nov-12 12:30N 22°28' E 113°55'2 4.5
2017-Nov-12 12:00N 22°29' E 113°57'3 6.4
2017-Nov-12 11:30N 22°27' E 113°54'2 3.5
2017-Nov-12 11:00N 22°28' E 113°55'0 0.0
2017-Nov-12 10:30N 22°28' E 113°55'0 0.0
2017-Nov-12 10:00N 22°28' E 113°55'1 1.7
2017-Nov-12 09:30N 22°27' E 113°55'2 4.7
2017-Nov-12 09:00N 22°29' E 113°57'3 7.0
2017-Nov-12 08:30N 22°26' E 113°54'2 3.4
2017-Nov-12 07:55N 22°28' E 113°55'0 0.0
2017-Nov-12 07:25N 22°28' E 113°55'0 0.0
2017-Nov-12 06:52N 22°28' E 113°55'0 0.0
2017-Nov-12 06:24N 22°28' E 113°55'512.8
2017-Nov-12 06:01N 22°23' E 113°54'1223.2
2017-Nov-12 05:30N 22°19' E 114°06'3 6.5
2017-Nov-12 05:00N 22°17' E 114°09'1121.7
2017-Nov-12 04:30N 22°21' E 113°58'814.6
2017-Nov-12 03:58N 22°28' E 113°55'0 0.0
2017-Nov-12 03:31N 22°28' E 113°55'1 2.3
2017-Nov-12 03:01N 22°27' E 113°55'1420.3
2017-Nov-12 02:19N 22°19' E 114°07'2 5.2
2017-Nov-12 01:55N 22°18' E 114°09'1023.1
2017-Nov-12 01:30N 22°21' E 113°59'813.8
2017-Nov-12 00:55N 22°28' E 113°55'0 0.0
2017-Nov-12 00:25N 22°28' E 113°55'0 0.0
2017-Nov-11 23:52N 22°28' E 113°55'0 0.0
2017-Nov-11 23:31N 22°28' E 113°55'0 0.0
2017-Nov-11 22:43N 22°28' E 113°55'0 0.0
2017-Nov-11 22:25N 22°28' E 113°55'0 0.0
2017-Nov-11 22:01N 22°28' E 113°55'0 0.0
2017-Nov-11 20:49N 22°28' E 113°55'0 0.0
2017-Nov-11 20:25N 22°28' E 113°55'0 0.0
2017-Nov-11 20:00N 22°28' E 113°55'0 0.0
2017-Nov-11 19:30N 22°28' E 113°55'0 0.0
2017-Nov-11 18:54N 22°28' E 113°55'0 0.0
2017-Nov-11 18:25N 22°28' E 113°55'0 0.0
2017-Nov-11 17:58N 22°28' E 113°55'0 0.0
2017-Nov-11 17:31N 22°28' E 113°55'0 0.0
2017-Nov-11 17:00N 22°28' E 113°55'0 0.0
2017-Nov-11 16:24N 22°28' E 113°55'0 0.0
2017-Nov-11 16:00N 22°28' E 113°55'0 0.0
2017-Nov-11 15:30N 22°28' E 113°55'0 0.0
2017-Nov-11 15:00N 22°28' E 113°55'0 0.0
2017-Nov-11 14:30N 22°28' E 113°55'0 0.0
2017-Nov-11 13:58N 22°28' E 113°55'0 0.0
2017-Nov-11 13:30N 22°28' E 113°55'0 0.0
2017-Nov-11 13:00N 22°28' E 113°55'1 1.9
2017-Nov-11 12:30N 22°27' E 113°55'2 4.1
2017-Nov-11 12:01N 22°29' E 113°57'4 7.4
2017-Nov-11 11:30N 22°26' E 113°54'2 4.0
2017-Nov-11 10:58N 22°28' E 113°55'0 0.0
2017-Nov-11 10:28N 22°28' E 113°55'0 0.0
2017-Nov-11 09:55N 22°28' E 113°55'1 2.3
2017-Nov-11 09:30N 22°27' E 113°55'2 4.2
2017-Nov-11 09:01N 22°29' E 113°57'4 7.5
2017-Nov-11 08:30N 22°26' E 113°53'2 2.8
2017-Nov-11 07:44N 22°28' E 113°55'0 0.0
2017-Nov-11 07:29N 22°28' E 113°55'0 0.0
2017-Nov-11 06:59N 22°28' E 113°55'0 0.0
2017-Nov-11 06:23N 22°28' E 113°55'0 0.0
2017-Nov-11 05:59N 22°28' E 113°55'0 0.0
2017-Nov-11 05:26N 22°28' E 113°55'0 0.0
2017-Nov-11 04:59N 22°28' E 113°55'0 0.1
2017-Nov-11 04:31N 22°28' E 113°55'1318.8
2017-Nov-11 03:49N 22°20' E 114°05'4 9.4
2017-Nov-11 03:21N 22°17' E 114°09'818.0
2017-Nov-11 02:55N 22°21' E 114°02'820.5
2017-Nov-11 02:31N 22°26' E 113°54'3 5.4
2017-Nov-11 02:00N 22°28' E 113°55'0 0.2
2017-Nov-11 01:26N 22°28' E 113°55'0 0.0
2017-Nov-11 00:59N 22°28' E 113°55'0 0.0
2017-Nov-11 00:29N 22°28' E 113°55'0 0.0
2017-Nov-10 23:59N 22°28' E 113°55'0 0.0
2017-Nov-10 23:29N 22°28' E 113°55'0 0.0
2017-Nov-10 22:59N 22°28' E 113°55'0 0.0
2017-Nov-10 22:29N 22°28' E 113°55'0 0.0
2017-Nov-10 21:59N 22°28' E 113°55'0 0.0
2017-Nov-10 21:29N 22°28' E 113°55'0 0.0
2017-Nov-10 20:59N 22°28' E 113°55'0 0.0
2017-Nov-10 20:29N 22°28' E 113°55'0 0.0
2017-Nov-10 19:59N 22°28' E 113°55'0 0.0
2017-Nov-10 19:29N 22°28' E 113°55'0 0.0
2017-Nov-10 18:59N 22°28' E 113°55'0 0.0
2017-Nov-10 18:29N 22°28' E 113°55'0 0.0
2017-Nov-10 17:59N 22°28' E 113°55'0 0.0
2017-Nov-10 17:29N 22°28' E 113°55'0 0.0
2017-Nov-10 16:59N 22°28' E 113°55'0 0.0
2017-Nov-10 16:26N 22°28' E 113°55'0 0.0
2017-Nov-10 15:59N 22°28' E 113°55'0 0.0
2017-Nov-10 15:26N 22°28' E 113°55'0 0.0
2017-Nov-10 14:59N 22°28' E 113°55'0 0.0
2017-Nov-10 14:26N 22°28' E 113°55'0 0.0
2017-Nov-10 13:59N 22°28' E 113°55'0 0.0
2017-Nov-10 13:29N 22°28' E 113°55'0 0.0
2017-Nov-10 13:01N 22°28' E 113°55'1 2.0
2017-Nov-10 12:30N 22°28' E 113°55'1 2.6
2017-Nov-10 12:00N 22°29' E 113°57'3 6.9
2017-Nov-10 11:30N 22°26' E 113°54'2 4.0
2017-Nov-10 10:58N 22°28' E 113°55'0 0.0
2017-Nov-10 10:25N 22°28' E 113°55'0 0.0
2017-Nov-10 09:58N 22°28' E 113°55'1 2.1
2017-Nov-10 09:30N 22°27' E 113°55'2 4.2
2017-Nov-10 09:00N 22°29' E 113°57'4 7.5
2017-Nov-10 08:30N 22°26' E 113°54'2 3.5
2017-Nov-10 07:54N 22°28' E 113°55'0 0.0
2017-Nov-10 07:27N 22°28' E 113°55'0 0.0
2017-Nov-10 07:00N 22°28' E 113°55'0 0.0
2017-Nov-10 06:30N 22°28' E 113°55'5 9.5
2017-Nov-10 06:01N 22°24' E 113°54'1322.9
2017-Nov-10 05:26N 22°19' E 114°08'2 4.1
2017-Nov-10 04:59N 22°18' E 114°09'1123.2
2017-Nov-10 04:30N 22°21' E 113°57'815.5
2017-Nov-10 04:00N 22°28' E 113°55'0 0.0
2017-Nov-10 03:30N 22°28' E 113°55'0 0.1
2017-Nov-10 03:00N 22°28' E 113°55'1224.4
2017-Nov-10 02:31N 22°19' E 113°46'1224.0
2017-Nov-10 02:00N 22°11' E 113°37'3 6.5
2017-Nov-10 01:30N 22°12' E 113°34'918.2
2017-Nov-10 01:01N 22°15' E 113°43'1427.0
2017-Nov-10 00:31N 22°25' E 113°53'4 7.6
2017-Nov-10 00:00N 22°28' E 113°55'0 0.0
2017-Nov-09 23:30N 22°28' E 113°55'0 0.0
2017-Nov-09 22:56N 22°28' E 113°55'0 0.0
2017-Nov-09 22:29N 22°28' E 113°55'0 0.1
2017-Nov-09 21:56N 22°28' E 113°55'0 0.1
2017-Nov-09 21:29N 22°28' E 113°55'0 0.0
2017-Nov-09 20:59N 22°28' E 113°55'0 0.0
2017-Nov-09 20:26N 22°28' E 113°55'0 0.0
2017-Nov-09 19:53N 22°28' E 113°55'0 0.0
2017-Nov-09 19:29N 22°28' E 113°55'0 0.0
2017-Nov-09 18:59N 22°28' E 113°55'0 0.0
2017-Nov-09 18:29N 22°28' E 113°55'0 0.0
2017-Nov-09 17:59N 22°28' E 113°55'0 0.0
2017-Nov-09 17:29N 22°28' E 113°55'0 0.0
2017-Nov-09 16:56N 22°28' E 113°55'0 0.0
2017-Nov-09 16:29N 22°28' E 113°55'0 0.0
2017-Nov-09 15:56N 22°28' E 113°55'0 0.0
2017-Nov-09 15:23N 22°28' E 113°55'0 0.0
2017-Nov-09 14:59N 22°28' E 113°55'0 0.0
2017-Nov-09 14:26N 22°28' E 113°55'0 0.0
2017-Nov-09 13:59N 22°28' E 113°55'0 0.0
2017-Nov-09 13:26N 22°28' E 113°55'0 0.0
2017-Nov-09 12:57N 22°28' E 113°55'1 1.4
2017-Nov-09 12:30N 22°28' E 113°55'2 4.5
2017-Nov-09 12:00N 22°29' E 113°57'3 6.7
2017-Nov-09 11:30N 22°27' E 113°54'2 3.8
2017-Nov-09 11:00N 22°28' E 113°55'0 0.0
2017-Nov-09 10:30N 22°28' E 113°55'0 0.0
2017-Nov-09 10:00N 22°28' E 113°55'0 0.0
2017-Nov-09 09:30N 22°28' E 113°55'1 1.6
2017-Nov-09 09:00N 22°28' E 113°55'1 1.2
2017-Nov-09 08:30N 22°28' E 113°55'1 1.7
2017-Nov-09 08:00N 22°28' E 113°55'0 0.2
2017-Nov-09 07:27N 22°28' E 113°55'0 0.0
2017-Nov-09 06:54N 22°28' E 113°55'  

Dump ship's entire track history